createdAt,value
2022-08-23T00:02:05.840Z,100370.88
2022-08-23T00:04:53.237Z,100370.66
2022-08-23T00:07:38.046Z,100368.53
2022-08-23T00:10:05.271Z,100368.56
2022-08-23T00:12:31.672Z,100365.38
2022-08-23T00:14:58.467Z,100378.97
2022-08-23T00:17:33.863Z,100374.16
2022-08-23T00:20:06.384Z,100378.53
2022-08-23T00:22:32.939Z,100382.63
2022-08-23T00:24:59.284Z,100389.09
2022-08-23T00:27:26.864Z,100380.28
2022-08-23T00:29:54.814Z,100383.69
2022-08-23T00:32:24.676Z,100382.84
2022-08-23T00:34:51.525Z,100360.31
2022-08-23T00:37:18.962Z,100365.91
2022-08-23T00:39:45.812Z,100372.44
2022-08-23T00:42:33.495Z,100378.53
2022-08-23T00:45:21.288Z,100381.72
2022-08-23T00:47:48.322Z,100375.38
2022-08-23T00:50:24.203Z,100379.34
2022-08-23T00:53:16.254Z,100381.03
2022-08-23T00:55:45.916Z,100377.66
2022-08-23T00:58:14.527Z,100379.34
2022-08-23T01:00:41.115Z,100376.56
2022-08-23T01:03:09.803Z,100389.56
2022-08-23T01:05:46.621Z,100388.69
2022-08-23T01:08:13.167Z,100389.28
2022-08-23T01:10:47.256Z,100382.94
2022-08-23T01:13:24.645Z,100384.88
2022-08-23T01:16:11.874Z,100384.81
2022-08-23T01:18:39.611Z,100381.47
2022-08-23T01:21:20.714Z,100378.75
2022-08-23T01:23:55.471Z,100385.47
2022-08-23T01:26:24.903Z,100380.00
2022-08-23T01:28:53.935Z,100391.78
2022-08-23T01:31:23.184Z,100394.81
2022-08-23T01:33:56.811Z,100386.03
2022-08-23T01:36:23.337Z,100384.97
2022-08-23T01:38:49.792Z,100390.88
2022-08-23T01:41:16.299Z,100389.59
2022-08-23T01:43:42.710Z,100388.75
2022-08-23T01:46:11.887Z,100389.16
2022-08-23T01:48:38.572Z,100385.19
2022-08-23T01:51:05.678Z,100397.75
2022-08-23T01:53:32.109Z,100389.16
2022-08-23T01:56:01.475Z,100400.66
2022-08-23T01:58:31.106Z,100394.75
2022-08-23T02:00:57.755Z,100397.66
2022-08-23T02:03:24.522Z,100399.69
2022-08-23T02:08:40.787Z,100394.53
2022-08-23T02:11:16.568Z,100398.91
2022-08-23T02:13:44.186Z,100401.31
2022-08-23T02:16:10.973Z,100393.16
2022-08-23T02:18:41.558Z,100397.53
2022-08-23T02:21:09.574Z,100406.69
2022-08-23T02:23:35.911Z,100401.06
2022-08-23T02:26:02.307Z,100395.34
2022-08-23T02:28:28.703Z,100406.13
2022-08-23T02:30:55.079Z,100409.69
2022-08-23T02:33:22.172Z,100409.63
2022-08-23T02:35:49.970Z,100401.81
2022-08-23T02:38:18.074Z,100406.50
2022-08-23T02:40:44.586Z,100404.63
2022-08-23T02:43:12.052Z,100404.88
2022-08-23T02:45:38.956Z,100403.19
2022-08-23T02:48:05.878Z,100406.56
2022-08-23T02:50:32.343Z,100411.16
2022-08-23T02:52:58.977Z,100414.06
2022-08-23T02:55:25.414Z,100414.84
2022-08-23T02:57:52.114Z,100407.53
2022-08-23T03:00:19.531Z,100407.91
2022-08-23T03:02:46.124Z,100406.22
2022-08-23T03:05:14.787Z,100418.88
2022-08-23T03:07:41.252Z,100410.06
2022-08-23T03:10:09.190Z,100407.53
2022-08-23T03:12:35.807Z,100418.78
2022-08-23T03:15:03.594Z,100419.72
2022-08-23T03:17:32.273Z,100421.63
2022-08-23T03:19:58.638Z,100418.69
2022-08-23T03:22:25.155Z,100419.28
2022-08-23T03:24:51.578Z,100420.69
2022-08-23T03:27:17.977Z,100419.84
2022-08-23T03:29:44.340Z,100411.50
2022-08-23T03:32:10.692Z,100416.09
2022-08-23T03:34:37.131Z,100418.75
2022-08-23T03:37:03.879Z,100409.75
2022-08-23T03:39:30.270Z,100417.22
2022-08-23T03:41:56.700Z,100421.38
2022-08-23T03:44:23.168Z,100427.91
2022-08-23T03:46:50.436Z,100431.75
2022-08-23T03:49:17.046Z,100428.78
2022-08-23T03:51:43.469Z,100427.94
2022-08-23T03:54:10.305Z,100434.13
2022-08-23T03:56:40.051Z,100438.06
2022-08-23T03:59:09.164Z,100444.53
2022-08-23T04:01:36.515Z,100442.66
2022-08-23T04:04:03.298Z,100438.06
2022-08-23T04:06:29.855Z,100442.66
2022-08-23T04:08:56.555Z,100443.19
2022-08-23T04:11:23.847Z,100443.00
2022-08-23T04:13:50.428Z,100449.66
2022-08-23T04:16:18.867Z,100458.19
2022-08-23T04:18:45.808Z,100458.56
2022-08-23T04:21:16.920Z,100449.75
2022-08-23T04:23:43.351Z,100450.22
2022-08-23T04:26:10.224Z,100457.34
2022-08-23T04:28:37.029Z,100463.34
2022-08-23T04:31:04.579Z,100461.00
2022-08-23T04:33:32.766Z,100461.31
2022-08-23T04:36:00.217Z,100464.13
2022-08-23T04:38:27.387Z,100468.25
2022-08-23T04:41:12.855Z,100465.16
2022-08-23T04:43:40.423Z,100471.13
2022-08-23T04:46:07.475Z,100471.75
2022-08-23T04:48:35.268Z,100482.28
2022-08-23T04:51:01.876Z,100470.00
2022-08-23T04:53:30.325Z,100476.09
2022-08-23T04:55:56.847Z,100489.66
2022-08-23T04:58:23.235Z,100484.72
2022-08-23T05:00:51.765Z,100487.91
2022-08-23T05:03:18.452Z,100492.88
2022-08-23T05:05:44.866Z,100495.56
2022-08-23T05:08:11.455Z,100497.16
2022-08-23T05:10:38.218Z,100503.53
2022-08-23T05:13:04.631Z,100498.09
2022-08-23T05:15:31.048Z,100507.28
2022-08-23T05:17:57.554Z,100509.34
2022-08-23T05:20:24.088Z,100516.59
2022-08-23T05:22:50.450Z,100518.66
2022-08-23T05:25:16.934Z,100512.06
2022-08-23T05:27:44.330Z,100520.84
2022-08-23T05:30:15.367Z,100505.28
2022-08-23T05:32:42.284Z,100519.63
2022-08-23T05:35:08.982Z,100523.09
2022-08-23T05:37:35.369Z,100525.63
2022-08-23T05:40:02.050Z,100530.19
2022-08-23T05:42:28.524Z,100530.28
2022-08-23T05:44:55.414Z,100525.41
2022-08-23T05:47:23.676Z,100527.03
2022-08-23T05:49:51.645Z,100539.66
2022-08-23T05:52:18.013Z,100543.34
2022-08-23T05:54:44.482Z,100547.25
2022-08-23T05:57:11.309Z,100547.16
2022-08-23T05:59:37.649Z,100554.91
2022-08-23T06:02:04.390Z,100550.16
2022-08-23T06:04:31.010Z,100544.78
2022-08-23T06:06:58.793Z,100555.22
2022-08-23T06:09:26.222Z,100555.75
2022-08-23T06:11:53.033Z,100561.31
2022-08-23T06:14:19.894Z,100560.22
2022-08-23T06:16:54.865Z,100571.22
2022-08-23T06:19:23.669Z,100548.03
2022-08-23T06:21:51.265Z,100565.13
2022-08-23T06:24:18.275Z,100564.78
2022-08-23T06:26:45.361Z,100564.63
2022-08-23T06:29:14.664Z,100561.66
2022-08-23T06:31:47.509Z,100563.78
2022-08-23T06:34:24.055Z,100564.13
2022-08-23T06:36:56.358Z,100566.69
2022-08-23T06:39:26.196Z,100572.00
2022-08-23T06:41:53.622Z,100575.34
2022-08-23T06:44:20.451Z,100570.41
2022-08-23T06:46:49.208Z,100562.88
2022-08-23T06:49:15.990Z,100573.00
2022-08-23T06:51:46.369Z,100573.13
2022-08-23T06:54:15.192Z,100579.94
2022-08-23T06:56:43.496Z,100579.75
2022-08-23T06:59:10.439Z,100577.53
2022-08-23T07:01:47.974Z,100573.97
2022-08-23T07:07:16.557Z,100582.94
2022-08-23T07:09:42.935Z,100583.75
2022-08-23T07:12:10.833Z,100589.84
2022-08-23T07:14:38.252Z,100585.06
2022-08-23T07:17:05.268Z,100581.50
2022-08-23T07:19:34.370Z,100581.47
2022-08-23T07:22:02.323Z,100581.50
2022-08-23T07:24:33.303Z,100589.88
2022-08-23T07:27:06.164Z,100586.13
2022-08-23T07:29:33.140Z,100588.63
2022-08-23T07:31:59.599Z,100594.28
2022-08-23T07:34:26.428Z,100591.53
2022-08-23T07:36:53.894Z,100585.16
2022-08-23T07:39:22.139Z,100591.69
2022-08-23T07:41:49.503Z,100587.66
2022-08-23T07:44:18.189Z,100590.38
2022-08-23T07:46:46.009Z,100587.63
2022-08-23T07:49:13.115Z,100589.97
2022-08-23T07:51:41.865Z,100592.81
2022-08-23T07:54:10.403Z,100587.94
2022-08-23T07:56:37.601Z,100593.13
2022-08-23T07:59:05.147Z,100593.59
2022-08-23T08:01:31.639Z,100585.09
2022-08-23T08:04:00.279Z,100594.81
2022-08-23T08:07:04.752Z,100592.44
2022-08-23T08:09:36.241Z,100591.94
2022-08-23T08:12:03.168Z,100592.66
2022-08-23T08:14:29.547Z,100601.19
2022-08-23T08:16:58.684Z,100599.72
2022-08-23T08:19:25.527Z,100600.75
2022-08-23T08:21:51.998Z,100591.69
2022-08-23T08:24:18.973Z,100601.13
2022-08-23T08:26:47.042Z,100613.94
2022-08-23T08:29:14.063Z,100608.75
2022-08-23T08:31:43.138Z,100611.63
2022-08-23T08:34:10.114Z,100616.00
2022-08-23T08:36:45.484Z,100613.75
2022-08-23T08:39:14.872Z,100611.28
2022-08-23T08:42:05.284Z,100615.00
2022-08-23T08:44:49.667Z,100612.94
2022-08-23T08:47:36.347Z,100615.22
2022-08-23T08:50:28.390Z,100628.44
2022-08-23T08:53:05.175Z,100616.22
2022-08-23T08:56:00.631Z,100620.00
2022-08-23T08:58:29.954Z,100625.28
2022-08-23T09:00:56.849Z,100621.34
2022-08-23T09:03:34.177Z,100630.31
2022-08-23T09:06:18.994Z,100623.28
2022-08-23T09:09:09.828Z,100627.72
2022-08-23T09:12:01.265Z,100630.88
2022-08-23T09:15:21.212Z,100627.59
2022-08-23T09:17:54.598Z,100624.13
2022-08-23T09:20:24.156Z,100619.28
2022-08-23T09:22:58.108Z,100628.19
2022-08-23T09:25:24.890Z,100622.94
2022-08-23T09:27:51.248Z,100618.91
2022-08-23T09:30:20.066Z,100614.53
2022-08-23T09:32:50.117Z,100612.63
2022-08-23T09:35:26.202Z,100605.56
2022-08-23T09:38:21.148Z,100610.13
2022-08-23T09:40:50.595Z,100612.00
2022-08-23T09:43:25.963Z,100608.41
2022-08-23T09:45:52.286Z,100604.16
2022-08-23T09:48:39.863Z,100602.28
2022-08-23T09:51:17.527Z,100608.03
2022-08-23T09:53:50.120Z,100596.34
2022-08-23T09:56:23.445Z,100600.38
2022-08-23T09:58:53.433Z,100595.88
2022-08-23T10:01:28.437Z,100596.94
2022-08-23T10:04:22.600Z,100591.59
2022-08-23T10:06:49.261Z,100595.19
2022-08-23T10:09:28.094Z,100585.94
2022-08-23T10:11:56.718Z,100585.78
2022-08-23T10:14:28.677Z,100593.88
2022-08-23T10:17:30.929Z,100592.53
2022-08-23T10:20:21.544Z,100596.75
2022-08-23T10:23:15.314Z,100593.56
2022-08-23T10:26:01.945Z,100591.94
2022-08-23T10:29:03.720Z,100596.28
2022-08-23T10:31:39.620Z,100586.69
2022-08-23T10:34:34.116Z,100586.72
2022-08-23T10:37:22.142Z,100593.66
2022-08-23T10:40:03.979Z,100600.50
2022-08-23T10:42:33.638Z,100592.56
2022-08-23T10:45:09.367Z,100596.47
2022-08-23T10:47:41.267Z,100587.91
2022-08-23T10:50:19.264Z,100588.97
2022-08-23T10:53:04.979Z,100583.16
2022-08-23T10:55:54.623Z,100583.84
2022-08-23T10:58:27.140Z,100572.53
2022-08-23T11:00:58.531Z,100585.34
2022-08-23T11:03:31.680Z,100579.09
2022-08-23T11:06:35.346Z,100579.13
2022-08-23T11:09:22.434Z,100571.63
2022-08-23T11:12:14.101Z,100567.59
2022-08-23T11:14:45.523Z,100569.41
2022-08-23T11:17:25.205Z,100558.31
2022-08-23T11:19:59.123Z,100555.75
2022-08-23T11:22:32.475Z,100562.47
2022-08-23T11:24:58.792Z,100564.66
2022-08-23T11:27:46.008Z,100556.72
2022-08-23T11:30:36.956Z,100549.44
2022-08-23T11:33:16.677Z,100549.25
2022-08-23T11:35:48.248Z,100549.84
2022-08-23T11:38:15.679Z,100547.94
2022-08-23T11:40:51.698Z,100549.03
2022-08-23T11:43:38.007Z,100554.84
2022-08-23T11:46:23.049Z,100548.19
2022-08-23T11:49:04.653Z,100552.66
2022-08-23T11:51:40.273Z,100543.47
2022-08-23T11:54:57.331Z,100546.47
2022-08-23T11:57:37.490Z,100542.09
2022-08-23T12:00:14.669Z,100539.72
2022-08-23T12:03:13.263Z,100544.75
2022-08-23T12:06:02.805Z,100543.63
2022-08-23T12:08:50.295Z,100543.56
2022-08-23T12:11:19.154Z,100532.56
2022-08-23T12:13:48.372Z,100540.91
2022-08-23T12:16:16.211Z,100529.19
2022-08-23T12:18:50.608Z,100523.34
2022-08-23T12:21:23.527Z,100523.78
2022-08-23T12:23:56.711Z,100521.78
2022-08-23T12:26:42.376Z,100518.59
2022-08-23T12:29:18.938Z,100523.03
2022-08-23T12:32:10.159Z,100525.66
2022-08-23T12:34:51.255Z,100527.44
2022-08-23T12:37:48.139Z,100519.06
2022-08-23T12:40:32.446Z,100515.97
2022-08-23T12:43:21.223Z,100521.00
2022-08-23T12:45:52.677Z,100519.31
2022-08-23T12:48:23.501Z,100521.53
2022-08-23T12:51:02.821Z,100514.47
2022-08-23T12:53:36.344Z,100517.13
2022-08-23T12:56:14.203Z,100519.47
2022-08-23T12:58:46.424Z,100515.47
2022-08-23T13:01:26.398Z,100518.34
2022-08-23T13:04:08.176Z,100517.31
2022-08-23T13:06:42.982Z,100506.91
2022-08-23T13:09:17.506Z,100494.81
2022-08-23T13:11:45.604Z,100507.25
2022-08-23T13:14:22.455Z,100506.25
2022-08-23T13:16:51.536Z,100507.16
2022-08-23T13:19:22.180Z,100500.50
2022-08-23T13:21:51.223Z,100496.59
2022-08-23T13:24:31.410Z,100500.59
2022-08-23T13:27:18.457Z,100503.16
2022-08-23T13:30:10.524Z,100498.91
2022-08-23T13:32:36.893Z,100497.19
2022-08-23T13:35:23.820Z,100499.63
2022-08-23T13:37:52.311Z,100495.97
2022-08-23T13:40:29.628Z,100494.53
2022-08-23T13:43:04.324Z,100495.56
2022-08-23T13:45:34.526Z,100488.06
2022-08-23T13:48:19.786Z,100494.94
2022-08-23T13:50:46.846Z,100488.91
2022-08-23T13:53:15.559Z,100476.53
2022-08-23T13:56:02.452Z,100486.00
2022-08-23T13:58:31.876Z,100485.03
2022-08-23T14:01:00.806Z,100485.19
2022-08-23T14:03:29.037Z,100490.81
2022-08-23T14:05:55.596Z,100480.03
2022-08-23T14:08:22.750Z,100480.81
2022-08-23T14:10:49.705Z,100481.38
2022-08-23T14:13:18.228Z,100484.09
2022-08-23T14:18:33.471Z,100476.91
2022-08-23T14:21:00.269Z,100474.88
2022-08-23T14:23:26.875Z,100465.91
2022-08-23T14:25:55.712Z,100472.81
2022-08-23T14:28:24.894Z,100471.81
2022-08-23T14:30:51.538Z,100481.72
2022-08-23T14:33:19.832Z,100467.25
2022-08-23T14:35:46.184Z,100466.31
2022-08-23T14:38:14.966Z,100471.25
2022-08-23T14:40:53.851Z,100466.78
2022-08-23T14:43:21.718Z,100468.97
2022-08-23T14:45:49.222Z,100473.78
2022-08-23T14:48:16.525Z,100466.19
2022-08-23T14:50:44.271Z,100465.78
2022-08-23T14:53:12.259Z,100462.66
2022-08-23T14:55:38.607Z,100465.88
2022-08-23T14:58:04.958Z,100470.50
2022-08-23T15:00:32.483Z,100460.22
2022-08-23T15:02:59.209Z,100466.84
2022-08-23T15:05:25.606Z,100471.53
2022-08-23T15:07:52.222Z,100466.81
2022-08-23T15:13:28.325Z,100469.44
2022-08-23T15:15:52.435Z,100458.66
2022-08-23T15:18:19.585Z,100462.66
2022-08-23T15:20:46.225Z,100456.47
2022-08-23T15:23:12.695Z,100456.97
2022-08-23T15:25:41.159Z,100458.91
2022-08-23T15:28:12.896Z,100452.59
2022-08-23T15:30:40.652Z,100459.69
2022-08-23T15:33:07.230Z,100450.28
2022-08-23T15:35:43.293Z,100446.88
2022-08-23T15:38:12.765Z,100442.91
2022-08-23T15:40:39.884Z,100440.81
2022-08-23T15:43:06.464Z,100445.50
2022-08-23T15:45:33.884Z,100436.66
2022-08-23T15:48:04.364Z,100439.25
2022-08-23T15:50:33.877Z,100443.97
2022-08-23T15:53:01.143Z,100439.59
2022-08-23T15:55:31.369Z,100443.78
2022-08-23T15:57:58.668Z,100425.47
2022-08-23T16:00:26.520Z,100437.72
2022-08-23T16:03:18.748Z,100442.59
2022-08-23T16:05:43.360Z,100429.75
2022-08-23T16:08:20.732Z,100436.94
2022-08-23T16:10:47.147Z,100435.22
2022-08-23T16:13:13.927Z,100436.06
2022-08-23T16:15:40.360Z,100439.28
2022-08-23T16:18:07.400Z,100438.28
2022-08-23T16:20:33.960Z,100440.09
2022-08-23T16:23:00.527Z,100437.28
2022-08-23T16:25:27.136Z,100435.91
2022-08-23T16:27:53.525Z,100437.28
2022-08-23T16:30:19.886Z,100435.38
2022-08-23T16:32:46.480Z,100439.88
2022-08-23T16:35:13.884Z,100434.06
2022-08-23T16:37:40.213Z,100443.53
2022-08-23T16:40:09.134Z,100435.75
2022-08-23T16:42:35.578Z,100442.19
2022-08-23T16:45:02.002Z,100443.84
2022-08-23T16:47:31.297Z,100439.94
2022-08-23T16:49:57.748Z,100438.84
2022-08-23T16:52:24.843Z,100440.53
2022-08-23T16:55:06.057Z,100442.47
2022-08-23T16:57:33.388Z,100441.31
2022-08-23T16:59:59.756Z,100436.06
2022-08-23T17:02:29.919Z,100441.06
2022-08-23T17:04:57.477Z,100439.66
2022-08-23T17:07:24.319Z,100442.69
2022-08-23T17:09:50.735Z,100435.50
2022-08-23T17:12:17.883Z,100442.69
2022-08-23T17:14:45.424Z,100439.41
2022-08-23T17:17:12.820Z,100437.16
2022-08-23T17:19:40.663Z,100441.28
2022-08-23T17:22:07.425Z,100441.56
2022-08-23T17:24:33.944Z,100441.72
2022-08-23T17:27:00.663Z,100451.44
2022-08-23T17:29:27.568Z,100454.13
2022-08-23T17:31:57.503Z,100451.34
2022-08-23T17:34:23.975Z,100449.94
2022-08-23T17:36:52.994Z,100444.09
2022-08-23T17:39:23.108Z,100458.38
2022-08-23T17:41:49.502Z,100454.44
2022-08-23T17:44:15.927Z,100457.16
2022-08-23T17:46:44.706Z,100460.97
2022-08-23T17:49:12.061Z,100449.44
2022-08-23T17:51:40.972Z,100463.25
2022-08-23T17:54:08.801Z,100463.19
2022-08-23T17:56:35.551Z,100456.19
2022-08-23T17:59:01.896Z,100463.78
2022-08-23T18:01:28.398Z,100460.91
2022-08-23T18:03:54.835Z,100460.19
2022-08-23T18:06:22.185Z,100466.66
2022-08-23T18:08:48.883Z,100466.84
2022-08-23T18:11:15.762Z,100475.53
2022-08-23T18:13:42.379Z,100473.22
2022-08-23T18:16:08.888Z,100475.31
2022-08-23T18:18:35.425Z,100479.31
2022-08-23T18:21:09.607Z,100472.78
2022-08-23T18:23:36.008Z,100476.34
2022-08-23T18:26:30.607Z,100481.06
2022-08-23T18:28:58.042Z,100483.06
2022-08-23T18:31:26.866Z,100489.00
2022-08-23T18:33:58.356Z,100494.34
2022-08-23T18:36:28.469Z,100489.66
2022-08-23T18:38:54.914Z,100496.25
2022-08-23T18:41:21.375Z,100495.97
2022-08-23T18:43:47.970Z,100501.41
2022-08-23T18:46:14.422Z,100507.16
2022-08-23T18:48:41.165Z,100496.66
2022-08-23T18:51:13.960Z,100504.13
2022-08-23T18:53:44.766Z,100511.34
2022-08-23T18:56:11.193Z,100513.38
2022-08-23T18:58:37.527Z,100512.34
2022-08-23T19:01:31.860Z,100512.72
2022-08-23T19:04:00.068Z,100514.72
2022-08-23T19:06:27.286Z,100514.63
2022-08-23T19:08:54.301Z,100523.28
2022-08-23T19:11:22.119Z,100531.28
2022-08-23T19:13:50.882Z,100529.97
2022-08-23T19:16:18.646Z,100530.47
2022-08-23T19:18:46.459Z,100540.47
2022-08-23T19:21:15.372Z,100537.69
2022-08-23T19:23:42.106Z,100542.97
2022-08-23T19:26:10.454Z,100540.41
2022-08-23T19:28:37.508Z,100535.88
2022-08-23T19:31:05.152Z,100539.72
2022-08-23T19:33:32.135Z,100542.41
2022-08-23T19:35:58.892Z,100542.16
2022-08-23T19:38:27.581Z,100534.72
2022-08-23T19:40:55.193Z,100542.72
2022-08-23T19:43:22.411Z,100537.91
2022-08-23T19:45:48.913Z,100547.25
2022-08-23T19:48:15.305Z,100541.84
2022-08-23T19:50:41.673Z,100543.94
2022-08-23T19:53:08.724Z,100545.91
2022-08-23T19:55:39.548Z,100551.34
2022-08-23T19:58:05.886Z,100542.06
2022-08-23T20:00:34.006Z,100552.25
2022-08-23T20:03:00.744Z,100545.00
2022-08-23T20:05:27.552Z,100551.16
2022-08-23T20:07:54.679Z,100555.50
2022-08-23T20:10:21.819Z,100551.16
2022-08-23T20:12:48.163Z,100560.16
2022-08-23T20:15:14.628Z,100560.66
2022-08-23T20:17:41.361Z,100561.06
2022-08-23T20:20:09.840Z,100562.97
2022-08-23T20:22:54.867Z,100572.75
2022-08-23T20:25:21.239Z,100572.59
2022-08-23T20:27:48.378Z,100572.69
2022-08-23T20:30:15.043Z,100570.22
2022-08-23T20:32:42.453Z,100576.56
2022-08-23T20:35:10.156Z,100576.41
2022-08-23T20:37:37.209Z,100579.66
2022-08-23T20:40:05.884Z,100573.94
2022-08-23T20:42:32.382Z,100569.56
2022-08-23T20:44:58.744Z,100574.66
2022-08-23T20:47:25.264Z,100581.06
2022-08-23T20:49:51.772Z,100580.09
2022-08-23T20:52:18.253Z,100581.22
2022-08-23T20:54:45.789Z,100581.72
2022-08-23T20:57:12.168Z,100582.16
2022-08-23T20:59:43.676Z,100583.44
2022-08-23T21:02:11.024Z,100583.59
2022-08-23T21:04:37.804Z,100582.16
2022-08-23T21:07:06.623Z,100581.75
2022-08-23T21:09:34.062Z,100590.44
2022-08-23T21:12:00.423Z,100581.19
2022-08-23T21:14:26.770Z,100586.88
2022-08-23T21:16:53.280Z,100586.03
2022-08-23T21:19:19.740Z,100593.19
2022-08-23T21:21:46.850Z,100594.88
2022-08-23T21:24:13.543Z,100590.44
2022-08-23T21:26:40.874Z,100591.75
2022-08-23T21:29:08.568Z,100591.13
2022-08-23T21:31:35.525Z,100590.50
2022-08-23T21:34:01.989Z,100591.81
2022-08-23T21:36:28.750Z,100602.53
2022-08-23T21:38:55.394Z,100608.63
2022-08-23T21:41:29.721Z,100601.66
2022-08-23T21:43:56.140Z,100602.53
2022-08-23T21:46:22.970Z,100602.31
2022-08-23T21:48:49.368Z,100605.03
2022-08-23T21:51:15.857Z,100597.47
2022-08-23T21:53:42.181Z,100599.75
2022-08-23T21:56:08.631Z,100594.09
2022-08-23T21:58:34.992Z,100597.47
2022-08-23T22:01:01.380Z,100607.13
2022-08-23T22:03:28.522Z,100613.84
2022-08-23T22:05:55.637Z,100612.56
2022-08-23T22:08:22.056Z,100605.41
2022-08-23T22:10:56.790Z,100609.63
2022-08-23T22:13:26.141Z,100604.81
2022-08-23T22:15:52.604Z,100616.38
2022-08-23T22:18:19.468Z,100601.25
2022-08-23T22:20:45.881Z,100602.28
2022-08-23T22:23:12.280Z,100601.25
2022-08-23T22:25:38.731Z,100598.91
2022-08-23T22:28:05.091Z,100594.09
2022-08-23T22:30:31.511Z,100604.59
2022-08-23T22:32:57.871Z,100614.66
2022-08-23T22:35:24.201Z,100606.88
2022-08-23T22:38:12.356Z,100612.78
2022-08-23T22:40:36.939Z,100615.88
2022-08-23T22:43:03.408Z,100617.56
2022-08-23T22:45:29.755Z,100618.41
2022-08-23T22:47:56.602Z,100622.16
2022-08-23T22:50:23.063Z,100616.19
2022-08-23T22:52:50.765Z,100626.88
2022-08-23T22:55:17.307Z,100624.59
2022-08-23T22:57:43.836Z,100632.25
2022-08-23T23:00:10.890Z,100627.16
2022-08-23T23:02:37.919Z,100617.03
2022-08-23T23:05:04.958Z,100609.47
2022-08-23T23:07:49.820Z,100626.06
2022-08-23T23:10:16.875Z,100624.78
2022-08-23T23:12:43.212Z,100638.66
2022-08-23T23:15:10.043Z,100632.41
2022-08-23T23:17:36.402Z,100635.53
2022-08-23T23:20:23.000Z,100639.47
2022-08-23T23:22:51.282Z,100625.22
2022-08-23T23:25:17.900Z,100639.72
2022-08-23T23:27:44.998Z,100642.88
2022-08-23T23:30:11.754Z,100635.34
2022-08-23T23:32:38.179Z,100635.13
2022-08-23T23:35:06.446Z,100643.06
2022-08-23T23:37:33.098Z,100648.09
2022-08-23T23:39:59.589Z,100646.41
2022-08-23T23:42:25.987Z,100649.13
2022-08-23T23:44:52.334Z,100652.69
2022-08-23T23:47:18.754Z,100656.47
2022-08-23T23:49:45.120Z,100655.63
2022-08-23T23:52:11.484Z,100647.19
2022-08-23T23:54:38.388Z,100652.44
2022-08-23T23:57:05.839Z,100649.94
2022-08-23T23:59:32.892Z,100642.97
